sensor_id;sensor_type;location;lat;lon;timestamp;temperature;humidity
8436;DHT22;4255;48.730;9.156;2024-02-23T00:02:15;5.70;99.90
8436;DHT22;4255;48.730;9.156;2024-02-23T00:04:40;5.90;99.90
8436;DHT22;4255;48.730;9.156;2024-02-23T00:07:07;6.00;99.90
8436;DHT22;4255;48.730;9.156;2024-02-23T00:09:33;5.90;99.90
8436;DHT22;4255;48.730;9.156;2024-02-23T00:11:59;5.90;99.90
8436;DHT22;4255;48.730;9.156;2024-02-23T00:14:24;5.90;99.90
8436;DHT22;4255;48.730;9.156;2024-02-23T00:16:50;5.90;99.90
8436;DHT22;4255;48.730;9.156;2024-02-23T00:19:16;5.80;99.90
8436;DHT22;4255;48.730;9.156;2024-02-23T00:21:43;5.80;99.90
8436;DHT22;4255;48.730;9.156;2024-02-23T00:24:13;5.80;99.90
8436;DHT22;4255;48.730;9.156;2024-02-23T00:26:38;5.70;99.90
8436;DHT22;4255;48.730;9.156;2024-02-23T00:29:04;5.90;99.90
8436;DHT22;4255;48.730;9.156;2024-02-23T00:31:29;6.00;99.90
8436;DHT22;4255;48.730;9.156;2024-02-23T00:33:55;5.90;99.90
8436;DHT22;4255;48.730;9.156;2024-02-23T00:36:21;5.90;99.90
8436;DHT22;4255;48.730;9.156;2024-02-23T00:38:47;6.00;99.90
8436;DHT22;4255;48.730;9.156;2024-02-23T00:41:12;6.20;99.90
8436;DHT22;4255;48.730;9.156;2024-02-23T00:43:41;6.20;99.90
8436;DHT22;4255;48.730;9.156;2024-02-23T00:46:08;6.20;99.90
8436;DHT22;4255;48.730;9.156;2024-02-23T00:48:34;6.10;99.90
8436;DHT22;4255;48.730;9.156;2024-02-23T00:51:01;6.20;99.90
8436;DHT22;4255;48.730;9.156;2024-02-23T00:53:26;6.10;99.90
8436;DHT22;4255;48.730;9.156;2024-02-23T00:55:52;6.00;99.90
8436;DHT22;4255;48.730;9.156;2024-02-23T00:58:18;6.30;99.90
8436;DHT22;4255;48.730;9.156;2024-02-23T01:00:43;6.10;99.90
8436;DHT22;4255;48.730;9.156;2024-02-23T01:03:09;6.30;99.90
8436;DHT22;4255;48.730;9.156;2024-02-23T01:05:35;6.30;99.90
8436;DHT22;4255;48.730;9.156;2024-02-23T01:08:00;6.30;99.90
8436;DHT22;4255;48.730;9.156;2024-02-23T01:10:26;6.20;99.90
8436;DHT22;4255;48.730;9.156;2024-02-23T01:12:52;6.20;99.90
8436;DHT22;4255;48.730;9.156;2024-02-23T01:15:18;6.30;99.90
8436;DHT22;4255;48.730;9.156;2024-02-23T01:17:43;6.30;99.90
8436;DHT22;4255;48.730;9.156;2024-02-23T01:20:09;6.40;99.90
8436;DHT22;4255;48.730;9.156;2024-02-23T01:22:35;6.40;99.90
8436;DHT22;4255;48.730;9.156;2024-02-23T01:25:00;6.50;99.90
8436;DHT22;4255;48.730;9.156;2024-02-23T01:27:26;6.40;99.90
8436;DHT22;4255;48.730;9.156;2024-02-23T01:29:51;6.50;99.90
8436;DHT22;4255;48.730;9.156;2024-02-23T01:32:17;6.40;99.90
8436;DHT22;4255;48.730;9.156;2024-02-23T01:34:43;6.30;99.90
8436;DHT22;4255;48.730;9.156;2024-02-23T01:37:08;6.30;99.90
8436;DHT22;4255;48.730;9.156;2024-02-23T01:39:34;6.30;99.90
8436;DHT22;4255;48.730;9.156;2024-02-23T01:41:59;6.20;99.90
8436;DHT22;4255;48.730;9.156;2024-02-23T01:44:25;6.20;99.90
8436;DHT22;4255;48.730;9.156;2024-02-23T01:46:50;6.30;99.90
8436;DHT22;4255;48.730;9.156;2024-02-23T01:49:17;6.30;99.90
8436;DHT22;4255;48.730;9.156;2024-02-23T01:51:43;6.30;99.90
8436;DHT22;4255;48.730;9.156;2024-02-23T01:54:09;6.20;99.90
8436;DHT22;4255;48.730;9.156;2024-02-23T01:56:36;6.20;99.90
8436;DHT22;4255;48.730;9.156;2024-02-23T01:59:04;6.30;99.90
8436;DHT22;4255;48.730;9.156;2024-02-23T02:01:31;6.40;99.90
8436;DHT22;4255;48.730;9.156;2024-02-23T02:03:58;6.40;99.90
8436;DHT22;4255;48.730;9.156;2024-02-23T02:06:24;6.20;99.90
8436;DHT22;4255;48.730;9.156;2024-02-23T02:08:50;6.30;99.90
8436;DHT22;4255;48.730;9.156;2024-02-23T02:11:16;6.40;99.90
8436;DHT22;4255;48.730;9.156;2024-02-23T02:13:41;6.40;99.90
8436;DHT22;4255;48.730;9.156;2024-02-23T02:16:07;6.30;99.90
8436;DHT22;4255;48.730;9.156;2024-02-23T02:18:33;6.30;99.90
8436;DHT22;4255;48.730;9.156;2024-02-23T02:20:58;6.20;99.90
8436;DHT22;4255;48.730;9.156;2024-02-23T02:23:24;6.30;99.90
8436;DHT22;4255;48.730;9.156;2024-02-23T02:25:55;6.50;99.90
8436;DHT22;4255;48.730;9.156;2024-02-23T02:28:22;6.20;99.90
8436;DHT22;4255;48.730;9.156;2024-02-23T02:30:49;6.30;99.90
8436;DHT22;4255;48.730;9.156;2024-02-23T02:33:14;6.30;99.90
8436;DHT22;4255;48.730;9.156;2024-02-23T02:35:40;6.30;99.90
8436;DHT22;4255;48.730;9.156;2024-02-23T02:38:05;6.40;99.90
8436;DHT22;4255;48.730;9.156;2024-02-23T02:40:31;6.30;99.90
8436;DHT22;4255;48.730;9.156;2024-02-23T02:42:57;6.30;99.90
8436;DHT22;4255;48.730;9.156;2024-02-23T02:45:23;6.40;99.90
8436;DHT22;4255;48.730;9.156;2024-02-23T02:47:49;6.40;99.90
8436;DHT22;4255;48.730;9.156;2024-02-23T02:50:15;6.40;99.90
8436;DHT22;4255;48.730;9.156;2024-02-23T02:52:40;6.20;99.90
8436;DHT22;4255;48.730;9.156;2024-02-23T02:55:06;6.10;99.90
8436;DHT22;4255;48.730;9.156;2024-02-23T02:57:32;5.90;99.90
8436;DHT22;4255;48.730;9.156;2024-02-23T02:59:57;5.80;99.90
8436;DHT22;4255;48.730;9.156;2024-02-23T03:02:23;5.70;99.90
8436;DHT22;4255;48.730;9.156;2024-02-23T03:04:49;5.70;99.90
8436;DHT22;4255;48.730;9.156;2024-02-23T03:07:16;5.60;99.90
8436;DHT22;4255;48.730;9.156;2024-02-23T03:09:42;5.70;95.60
8436;DHT22;4255;48.730;9.156;2024-02-23T03:12:08;5.70;99.90
8436;DHT22;4255;48.730;9.156;2024-02-23T03:14:34;5.80;80.00
8436;DHT22;4255;48.730;9.156;2024-02-23T03:17:00;5.70;64.50
8436;DHT22;4255;48.730;9.156;2024-02-23T03:19:25;5.60;63.90
8436;DHT22;4255;48.730;9.156;2024-02-23T03:21:51;5.70;56.60
8436;DHT22;4255;48.730;9.156;2024-02-23T03:24:17;5.70;32.20
8436;DHT22;4255;48.730;9.156;2024-02-23T03:26:43;5.70;26.30
8436;DHT22;4255;48.730;9.156;2024-02-23T03:29:09;5.70;41.20
8436;DHT22;4255;48.730;9.156;2024-02-23T03:31:35;5.70;36.60
8436;DHT22;4255;48.730;9.156;2024-02-23T03:34:02;5.60;34.30
8436;DHT22;4255;48.730;9.156;2024-02-23T03:36:27;5.70;39.10
8436;DHT22;4255;48.730;9.156;2024-02-23T03:38:53;5.60;14.40
8436;DHT22;4255;48.730;9.156;2024-02-23T03:41:18;5.60;20.90
8436;DHT22;4255;48.730;9.156;2024-02-23T03:43:44;5.50;20.30
8436;DHT22;4255;48.730;9.156;2024-02-23T03:46:09;5.50;28.00
8436;DHT22;4255;48.730;9.156;2024-02-23T03:48:37;5.50;1.00
8436;DHT22;4255;48.730;9.156;2024-02-23T03:51:04;5.50;1.00
8436;DHT22;4255;48.730;9.156;2024-02-23T03:53:30;5.50;1.00
8436;DHT22;4255;48.730;9.156;2024-02-23T03:55:57;5.50;1.00
8436;DHT22;4255;48.730;9.156;2024-02-23T03:58:22;5.40;1.00
8436;DHT22;4255;48.730;9.156;2024-02-23T04:00:48;5.40;1.00
8436;DHT22;4255;48.730;9.156;2024-02-23T04:03:13;5.50;1.00
8436;DHT22;4255;48.730;9.156;2024-02-23T04:05:39;5.50;1.00
8436;DHT22;4255;48.730;9.156;2024-02-23T04:08:05;5.50;1.00
8436;DHT22;4255;48.730;9.156;2024-02-23T04:10:30;5.30;1.00
8436;DHT22;4255;48.730;9.156;2024-02-23T04:12:57;5.30;1.00
8436;DHT22;4255;48.730;9.156;2024-02-23T04:15:23;5.40;1.00
8436;DHT22;4255;48.730;9.156;2024-02-23T04:17:48;5.50;1.00
8436;DHT22;4255;48.730;9.156;2024-02-23T04:20:14;5.50;1.00
8436;DHT22;4255;48.730;9.156;2024-02-23T04:22:40;5.60;1.00
8436;DHT22;4255;48.730;9.156;2024-02-23T04:25:05;5.50;1.00
8436;DHT22;4255;48.730;9.156;2024-02-23T04:27:31;5.50;1.00
8436;DHT22;4255;48.730;9.156;2024-02-23T04:29:57;5.70;1.00
8436;DHT22;4255;48.730;9.156;2024-02-23T04:32:23;5.60;1.00
8436;DHT22;4255;48.730;9.156;2024-02-23T04:34:48;5.70;1.00
8436;DHT22;4255;48.730;9.156;2024-02-23T04:37:14;5.90;1.00
8436;DHT22;4255;48.730;9.156;2024-02-23T04:39:39;6.10;1.00
8436;DHT22;4255;48.730;9.156;2024-02-23T04:42:07;6.00;1.00
8436;DHT22;4255;48.730;9.156;2024-02-23T04:44:34;6.00;1.00
8436;DHT22;4255;48.730;9.156;2024-02-23T04:47:00;6.00;1.00
8436;DHT22;4255;48.730;9.156;2024-02-23T04:49:26;6.20;1.00
8436;DHT22;4255;48.730;9.156;2024-02-23T04:51:52;6.00;1.00
8436;DHT22;4255;48.730;9.156;2024-02-23T04:54:18;6.00;1.00
8436;DHT22;4255;48.730;9.156;2024-02-23T04:56:44;6.00;1.00
8436;DHT22;4255;48.730;9.156;2024-02-23T04:59:09;5.90;1.00
8436;DHT22;4255;48.730;9.156;2024-02-23T05:01:38;6.20;1.00
8436;DHT22;4255;48.730;9.156;2024-02-23T05:04:04;6.20;1.00
8436;DHT22;4255;48.730;9.156;2024-02-23T05:06:30;6.50;1.00
8436;DHT22;4255;48.730;9.156;2024-02-23T05:08:55;6.60;1.00
8436;DHT22;4255;48.730;9.156;2024-02-23T05:11:21;6.50;1.00
8436;DHT22;4255;48.730;9.156;2024-02-23T05:13:47;6.50;1.00
8436;DHT22;4255;48.730;9.156;2024-02-23T05:16:16;6.40;1.00
8436;DHT22;4255;48.730;9.156;2024-02-23T05:18:42;6.50;1.00
8436;DHT22;4255;48.730;9.156;2024-02-23T05:21:08;6.60;1.00
8436;DHT22;4255;48.730;9.156;2024-02-23T05:23:35;6.60;1.00
8436;DHT22;4255;48.730;9.156;2024-02-23T05:26:01;6.60;1.00
8436;DHT22;4255;48.730;9.156;2024-02-23T05:28:26;6.50;1.00
8436;DHT22;4255;48.730;9.156;2024-02-23T05:30:53;6.50;1.00
8436;DHT22;4255;48.730;9.156;2024-02-23T05:33:19;6.50;1.00
8436;DHT22;4255;48.730;9.156;2024-02-23T05:35:46;6.50;1.00
8436;DHT22;4255;48.730;9.156;2024-02-23T05:38:14;6.60;1.00
8436;DHT22;4255;48.730;9.156;2024-02-23T05:40:40;6.60;1.00
8436;DHT22;4255;48.730;9.156;2024-02-23T05:43:05;6.90;99.90
8436;DHT22;4255;48.730;9.156;2024-02-23T05:45:31;7.00;99.90
8436;DHT22;4255;48.730;9.156;2024-02-23T05:47:57;7.00;99.90
8436;DHT22;4255;48.730;9.156;2024-02-23T05:50:23;7.00;99.90
8436;DHT22;4255;48.730;9.156;2024-02-23T05:52:48;7.00;99.90
8436;DHT22;4255;48.730;9.156;2024-02-23T05:55:14;7.00;99.90
8436;DHT22;4255;48.730;9.156;2024-02-23T05:57:40;7.00;99.90
8436;DHT22;4255;48.730;9.156;2024-02-23T06:00:06;6.90;99.90
8436;DHT22;4255;48.730;9.156;2024-02-23T06:02:33;6.80;99.90
8436;DHT22;4255;48.730;9.156;2024-02-23T06:04:58;6.80;99.90
8436;DHT22;4255;48.730;9.156;2024-02-23T06:07:24;6.70;99.90
8436;DHT22;4255;48.730;9.156;2024-02-23T06:09:56;6.50;33.10
8436;DHT22;4255;48.730;9.156;2024-02-23T06:12:22;6.50;17.70
8436;DHT22;4255;48.730;9.156;2024-02-23T06:14:48;6.40;20.40
8436;DHT22;4255;48.730;9.156;2024-02-23T06:17:13;6.20;57.00
8436;DHT22;4255;48.730;9.156;2024-02-23T06:19:39;6.10;72.90
8436;DHT22;4255;48.730;9.156;2024-02-23T06:22:05;5.90;99.90
8436;DHT22;4255;48.730;9.156;2024-02-23T06:24:30;5.70;99.90
8436;DHT22;4255;48.730;9.156;2024-02-23T06:26:56;5.70;99.90
8436;DHT22;4255;48.730;9.156;2024-02-23T06:29:23;5.80;99.90
8436;DHT22;4255;48.730;9.156;2024-02-23T06:31:49;5.80;99.90
8436;DHT22;4255;48.730;9.156;2024-02-23T06:34:15;5.80;99.90
8436;DHT22;4255;48.730;9.156;2024-02-23T06:36:41;5.90;99.90
8436;DHT22;4255;48.730;9.156;2024-02-23T06:39:07;5.90;99.90
8436;DHT22;4255;48.730;9.156;2024-02-23T06:41:33;5.90;99.90
8436;DHT22;4255;48.730;9.156;2024-02-23T06:43:59;5.90;99.90
8436;DHT22;4255;48.730;9.156;2024-02-23T06:46:25;5.90;99.90
8436;DHT22;4255;48.730;9.156;2024-02-23T06:48:51;5.90;99.90
8436;DHT22;4255;48.730;9.156;2024-02-23T06:51:16;6.00;99.90
8436;DHT22;4255;48.730;9.156;2024-02-23T06:53:42;6.00;99.90
8436;DHT22;4255;48.730;9.156;2024-02-23T06:56:07;6.00;99.90
8436;DHT22;4255;48.730;9.156;2024-02-23T06:58:33;6.10;99.90
8436;DHT22;4255;48.730;9.156;2024-02-23T07:00:59;6.00;99.90
8436;DHT22;4255;48.730;9.156;2024-02-23T07:03:25;6.00;99.90
8436;DHT22;4255;48.730;9.156;2024-02-23T07:05:51;6.00;99.90
8436;DHT22;4255;48.730;9.156;2024-02-23T07:08:16;5.90;99.90
8436;DHT22;4255;48.730;9.156;2024-02-23T07:10:42;5.80;99.90
8436;DHT22;4255;48.730;9.156;2024-02-23T07:13:08;5.70;99.90
8436;DHT22;4255;48.730;9.156;2024-02-23T07:15:34;5.80;99.90
8436;DHT22;4255;48.730;9.156;2024-02-23T07:18:01;5.80;99.90
8436;DHT22;4255;48.730;9.156;2024-02-23T07:20:26;5.80;99.90
8436;DHT22;4255;48.730;9.156;2024-02-23T07:22:52;5.90;99.90
8436;DHT22;4255;48.730;9.156;2024-02-23T07:25:18;5.90;99.90
8436;DHT22;4255;48.730;9.156;2024-02-23T07:27:46;5.80;99.90
8436;DHT22;4255;48.730;9.156;2024-02-23T07:30:12;5.90;99.90
8436;DHT22;4255;48.730;9.156;2024-02-23T07:32:38;6.00;99.90
8436;DHT22;4255;48.730;9.156;2024-02-23T07:35:04;5.90;99.90
8436;DHT22;4255;48.730;9.156;2024-02-23T07:37:30;6.10;99.90
8436;DHT22;4255;48.730;9.156;2024-02-23T07:39:55;6.20;99.90
8436;DHT22;4255;48.730;9.156;2024-02-23T07:42:21;6.40;99.90
8436;DHT22;4255;48.730;9.156;2024-02-23T07:44:47;6.30;99.90
8436;DHT22;4255;48.730;9.156;2024-02-23T07:47:12;6.20;99.90
8436;DHT22;4255;48.730;9.156;2024-02-23T07:49:38;6.20;99.90
8436;DHT22;4255;48.730;9.156;2024-02-23T07:52:06;6.10;99.90
8436;DHT22;4255;48.730;9.156;2024-02-23T07:54:32;6.10;99.90
8436;DHT22;4255;48.730;9.156;2024-02-23T07:56:58;6.20;99.90
8436;DHT22;4255;48.730;9.156;2024-02-23T07:59:24;6.20;99.90
8436;DHT22;4255;48.730;9.156;2024-02-23T08:01:50;6.40;99.90
8436;DHT22;4255;48.730;9.156;2024-02-23T08:04:15;6.10;99.90
8436;DHT22;4255;48.730;9.156;2024-02-23T08:06:41;6.10;99.90
8436;DHT22;4255;48.730;9.156;2024-02-23T08:09:08;6.20;99.90
8436;DHT22;4255;48.730;9.156;2024-02-23T08:11:34;6.40;99.90
8436;DHT22;4255;48.730;9.156;2024-02-23T08:13:59;6.40;99.90
8436;DHT22;4255;48.730;9.156;2024-02-23T08:16:25;6.40;99.90
8436;DHT22;4255;48.730;9.156;2024-02-23T08:18:51;6.50;99.90
8436;DHT22;4255;48.730;9.156;2024-02-23T08:21:16;6.60;99.90
8436;DHT22;4255;48.730;9.156;2024-02-23T08:23:42;6.40;99.90
8436;DHT22;4255;48.730;9.156;2024-02-23T08:26:07;6.20;99.90
8436;DHT22;4255;48.730;9.156;2024-02-23T08:28:35;6.10;99.90
8436;DHT22;4255;48.730;9.156;2024-02-23T08:31:01;6.20;99.90
8436;DHT22;4255;48.730;9.156;2024-02-23T08:33:26;6.20;99.90
8436;DHT22;4255;48.730;9.156;2024-02-23T08:35:52;6.30;99.90
8436;DHT22;4255;48.730;9.156;2024-02-23T08:38:17;6.40;99.90
8436;DHT22;4255;48.730;9.156;2024-02-23T08:40:44;6.20;99.90
8436;DHT22;4255;48.730;9.156;2024-02-23T08:43:10;6.10;99.90
8436;DHT22;4255;48.730;9.156;2024-02-23T08:45:36;6.00;99.90
8436;DHT22;4255;48.730;9.156;2024-02-23T08:48:02;6.10;99.90
8436;DHT22;4255;48.730;9.156;2024-02-23T08:50:28;6.10;99.90
8436;DHT22;4255;48.730;9.156;2024-02-23T08:52:54;6.00;99.90
8436;DHT22;4255;48.730;9.156;2024-02-23T08:55:20;6.00;99.90
8436;DHT22;4255;48.730;9.156;2024-02-23T08:57:47;6.00;99.90
8436;DHT22;4255;48.730;9.156;2024-02-23T09:00:13;6.10;99.90
8436;DHT22;4255;48.730;9.156;2024-02-23T09:02:40;6.00;99.90
8436;DHT22;4255;48.730;9.156;2024-02-23T09:05:08;6.20;99.90
8436;DHT22;4255;48.730;9.156;2024-02-23T09:07:33;6.20;99.90
8436;DHT22;4255;48.730;9.156;2024-02-23T09:09:59;6.10;99.90
8436;DHT22;4255;48.730;9.156;2024-02-23T09:12:25;6.10;99.90
8436;DHT22;4255;48.730;9.156;2024-02-23T09:14:51;6.20;99.90
8436;DHT22;4255;48.730;9.156;2024-02-23T09:17:17;6.40;99.90
8436;DHT22;4255;48.730;9.156;2024-02-23T09:19:44;6.40;99.90
8436;DHT22;4255;48.730;9.156;2024-02-23T09:22:10;6.40;99.90
8436;DHT22;4255;48.730;9.156;2024-02-23T09:24:39;6.60;99.90
8436;DHT22;4255;48.730;9.156;2024-02-23T09:27:05;6.70;99.90
8436;DHT22;4255;48.730;9.156;2024-02-23T09:29:30;6.70;99.90
8436;DHT22;4255;48.730;9.156;2024-02-23T09:31:56;6.80;99.90
8436;DHT22;4255;48.730;9.156;2024-02-23T09:34:21;6.90;99.90
8436;DHT22;4255;48.730;9.156;2024-02-23T09:36:47;6.70;99.90
8436;DHT22;4255;48.730;9.156;2024-02-23T09:39:13;6.80;99.90
8436;DHT22;4255;48.730;9.156;2024-02-23T09:41:39;6.70;99.90
8436;DHT22;4255;48.730;9.156;2024-02-23T09:44:04;6.70;99.90
8436;DHT22;4255;48.730;9.156;2024-02-23T09:46:33;6.90;99.90
8436;DHT22;4255;48.730;9.156;2024-02-23T09:48:59;7.10;99.90
8436;DHT22;4255;48.730;9.156;2024-02-23T09:51:25;7.20;99.90
8436;DHT22;4255;48.730;9.156;2024-02-23T09:53:51;7.30;99.90
8436;DHT22;4255;48.730;9.156;2024-02-23T09:56:17;7.40;99.90
8436;DHT22;4255;48.730;9.156;2024-02-23T09:58:46;7.40;99.90
8436;DHT22;4255;48.730;9.156;2024-02-23T10:01:15;7.60;99.90
8436;DHT22;4255;48.730;9.156;2024-02-23T10:03:45;7.60;99.90
8436;DHT22;4255;48.730;9.156;2024-02-23T10:06:10;7.90;99.90
8436;DHT22;4255;48.730;9.156;2024-02-23T10:08:36;7.90;99.90
8436;DHT22;4255;48.730;9.156;2024-02-23T10:11:01;7.70;99.90
8436;DHT22;4255;48.730;9.156;2024-02-23T10:13:29;7.70;99.90
8436;DHT22;4255;48.730;9.156;2024-02-23T10:15:55;7.70;99.90
8436;DHT22;4255;48.730;9.156;2024-02-23T10:18:20;7.50;99.90
8436;DHT22;4255;48.730;9.156;2024-02-23T10:20:47;7.60;99.90
8436;DHT22;4255;48.730;9.156;2024-02-23T10:23:13;7.60;99.90
8436;DHT22;4255;48.730;9.156;2024-02-23T10:25:38;7.70;99.90
8436;DHT22;4255;48.730;9.156;2024-02-23T10:28:05;7.70;99.90
8436;DHT22;4255;48.730;9.156;2024-02-23T10:30:32;7.80;99.90
8436;DHT22;4255;48.730;9.156;2024-02-23T10:32:58;8.00;99.90
8436;DHT22;4255;48.730;9.156;2024-02-23T10:35:25;8.20;99.90
8436;DHT22;4255;48.730;9.156;2024-02-23T10:37:52;8.20;99.90
8436;DHT22;4255;48.730;9.156;2024-02-23T10:40:20;8.20;99.90
8436;DHT22;4255;48.730;9.156;2024-02-23T10:42:47;8.30;99.90
8436;DHT22;4255;48.730;9.156;2024-02-23T10:45:20;8.20;99.90
8436;DHT22;4255;48.730;9.156;2024-02-23T10:47:50;8.20;99.90
8436;DHT22;4255;48.730;9.156;2024-02-23T10:50:17;8.20;99.90
8436;DHT22;4255;48.730;9.156;2024-02-23T10:52:45;8.20;99.90
8436;DHT22;4255;48.730;9.156;2024-02-23T10:55:14;8.20;99.90
8436;DHT22;4255;48.730;9.156;2024-02-23T10:57:39;8.20;99.90
8436;DHT22;4255;48.730;9.156;2024-02-23T11:00:07;8.10;99.90
8436;DHT22;4255;48.730;9.156;2024-02-23T11:02:40;8.20;99.90
8436;DHT22;4255;48.730;9.156;2024-02-23T11:05:08;8.10;99.90
8436;DHT22;4255;48.730;9.156;2024-02-23T11:07:41;8.10;99.90
8436;DHT22;4255;48.730;9.156;2024-02-23T11:10:07;8.20;99.90
8436;DHT22;4255;48.730;9.156;2024-02-23T11:12:34;8.30;99.90
8436;DHT22;4255;48.730;9.156;2024-02-23T11:15:01;8.50;99.90
8436;DHT22;4255;48.730;9.156;2024-02-23T11:17:27;8.70;99.90
8436;DHT22;4255;48.730;9.156;2024-02-23T11:19:55;8.90;99.90
8436;DHT22;4255;48.730;9.156;2024-02-23T11:22:31;8.90;99.90
8436;DHT22;4255;48.730;9.156;2024-02-23T11:25:07;8.70;99.90
8436;DHT22;4255;48.730;9.156;2024-02-23T11:27:39;8.50;99.90
8436;DHT22;4255;48.730;9.156;2024-02-23T11:30:08;8.40;99.90
8436;DHT22;4255;48.730;9.156;2024-02-23T11:32:37;8.20;99.90
8436;DHT22;4255;48.730;9.156;2024-02-23T11:35:07;8.50;99.90
8436;DHT22;4255;48.730;9.156;2024-02-23T11:37:54;8.70;99.90
8436;DHT22;4255;48.730;9.156;2024-02-23T11:40:27;9.00;99.90
8436;DHT22;4255;48.730;9.156;2024-02-23T11:42:54;8.80;99.90
8436;DHT22;4255;48.730;9.156;2024-02-23T11:45:21;8.80;99.90
8436;DHT22;4255;48.730;9.156;2024-02-23T11:47:46;8.80;99.90
8436;DHT22;4255;48.730;9.156;2024-02-23T11:50:13;8.70;99.90
8436;DHT22;4255;48.730;9.156;2024-02-23T11:52:40;8.90;99.90
8436;DHT22;4255;48.730;9.156;2024-02-23T11:55:07;9.10;99.90
8436;DHT22;4255;48.730;9.156;2024-02-23T11:57:36;9.10;99.90
8436;DHT22;4255;48.730;9.156;2024-02-23T12:00:04;9.30;99.90
8436;DHT22;4255;48.730;9.156;2024-02-23T12:02:34;9.20;99.90
8436;DHT22;4255;48.730;9.156;2024-02-23T12:05:00;9.10;99.90
8436;DHT22;4255;48.730;9.156;2024-02-23T12:07:28;9.20;99.90
8436;DHT22;4255;48.730;9.156;2024-02-23T12:09:55;9.20;99.90
8436;DHT22;4255;48.730;9.156;2024-02-23T12:12:21;9.20;99.90
8436;DHT22;4255;48.730;9.156;2024-02-23T12:14:47;9.30;99.90
8436;DHT22;4255;48.730;9.156;2024-02-23T12:17:13;9.40;99.90
8436;DHT22;4255;48.730;9.156;2024-02-23T12:19:40;9.50;99.90
8436;DHT22;4255;48.730;9.156;2024-02-23T12:22:06;9.50;99.90
8436;DHT22;4255;48.730;9.156;2024-02-23T12:24:31;9.50;99.90
8436;DHT22;4255;48.730;9.156;2024-02-23T12:26:57;9.40;99.90
8436;DHT22;4255;48.730;9.156;2024-02-23T12:29:23;9.20;99.90
8436;DHT22;4255;48.730;9.156;2024-02-23T12:31:49;9.10;99.90
8436;DHT22;4255;48.730;9.156;2024-02-23T12:34:15;8.90;99.90
8436;DHT22;4255;48.730;9.156;2024-02-23T12:36:42;8.80;99.90
8436;DHT22;4255;48.730;9.156;2024-02-23T12:39:08;8.80;99.90
8436;DHT22;4255;48.730;9.156;2024-02-23T12:41:33;9.00;99.90
8436;DHT22;4255;48.730;9.156;2024-02-23T12:43:59;9.00;99.90
8436;DHT22;4255;48.730;9.156;2024-02-23T12:46:25;9.10;99.90
8436;DHT22;4255;48.730;9.156;2024-02-23T12:48:51;9.00;99.90
8436;DHT22;4255;48.730;9.156;2024-02-23T12:51:16;8.90;99.90
8436;DHT22;4255;48.730;9.156;2024-02-23T12:53:42;8.90;99.90
8436;DHT22;4255;48.730;9.156;2024-02-23T12:56:13;9.00;99.90
8436;DHT22;4255;48.730;9.156;2024-02-23T12:58:43;9.00;99.90
8436;DHT22;4255;48.730;9.156;2024-02-23T13:01:12;9.30;99.90
8436;DHT22;4255;48.730;9.156;2024-02-23T13:03:39;9.50;99.90
8436;DHT22;4255;48.730;9.156;2024-02-23T13:06:07;9.30;99.90
8436;DHT22;4255;48.730;9.156;2024-02-23T13:08:33;9.20;99.90
8436;DHT22;4255;48.730;9.156;2024-02-23T13:11:00;9.20;99.90
8436;DHT22;4255;48.730;9.156;2024-02-23T13:13:25;9.10;99.90
8436;DHT22;4255;48.730;9.156;2024-02-23T13:15:52;9.30;99.90
8436;DHT22;4255;48.730;9.156;2024-02-23T13:18:18;9.60;99.90
8436;DHT22;4255;48.730;9.156;2024-02-23T13:20:47;9.80;99.90
8436;DHT22;4255;48.730;9.156;2024-02-23T13:23:12;9.90;99.90
8436;DHT22;4255;48.730;9.156;2024-02-23T13:25:39;9.90;99.90
8436;DHT22;4255;48.730;9.156;2024-02-23T13:28:05;9.60;99.90
8436;DHT22;4255;48.730;9.156;2024-02-23T13:30:32;9.60;99.90
8436;DHT22;4255;48.730;9.156;2024-02-23T13:32:57;9.50;99.90
8436;DHT22;4255;48.730;9.156;2024-02-23T13:35:23;9.60;99.90
8436;DHT22;4255;48.730;9.156;2024-02-23T13:37:49;9.50;99.90
8436;DHT22;4255;48.730;9.156;2024-02-23T13:40:14;9.40;99.90
8436;DHT22;4255;48.730;9.156;2024-02-23T13:42:40;9.40;99.90
8436;DHT22;4255;48.730;9.156;2024-02-23T13:45:07;9.30;99.90
8436;DHT22;4255;48.730;9.156;2024-02-23T13:47:33;9.40;99.90
8436;DHT22;4255;48.730;9.156;2024-02-23T13:49:59;9.50;99.90
8436;DHT22;4255;48.730;9.156;2024-02-23T13:52:25;9.50;99.90
8436;DHT22;4255;48.730;9.156;2024-02-23T13:54:51;9.60;99.90
8436;DHT22;4255;48.730;9.156;2024-02-23T13:57:16;9.50;99.90
8436;DHT22;4255;48.730;9.156;2024-02-23T13:59:42;9.50;99.90
8436;DHT22;4255;48.730;9.156;2024-02-23T14:02:08;9.40;99.90
8436;DHT22;4255;48.730;9.156;2024-02-23T14:04:33;9.50;99.90
8436;DHT22;4255;48.730;9.156;2024-02-23T14:06:59;9.40;99.90
8436;DHT22;4255;48.730;9.156;2024-02-23T14:09:24;9.40;99.90
8436;DHT22;4255;48.730;9.156;2024-02-23T14:11:50;9.20;99.90
8436;DHT22;4255;48.730;9.156;2024-02-23T14:14:16;9.20;99.90
8436;DHT22;4255;48.730;9.156;2024-02-23T14:16:42;9.10;99.90
8436;DHT22;4255;48.730;9.156;2024-02-23T14:19:07;9.30;99.90
8436;DHT22;4255;48.730;9.156;2024-02-23T14:21:33;9.20;99.90
8436;DHT22;4255;48.730;9.156;2024-02-23T14:24:02;9.20;99.90
8436;DHT22;4255;48.730;9.156;2024-02-23T14:26:27;9.30;99.90
8436;DHT22;4255;48.730;9.156;2024-02-23T14:28:53;9.40;99.90
8436;DHT22;4255;48.730;9.156;2024-02-23T14:31:19;9.60;99.90
8436;DHT22;4255;48.730;9.156;2024-02-23T14:33:44;9.60;99.90
8436;DHT22;4255;48.730;9.156;2024-02-23T14:36:10;9.60;99.90
8436;DHT22;4255;48.730;9.156;2024-02-23T14:38:36;9.50;99.90
8436;DHT22;4255;48.730;9.156;2024-02-23T14:41:02;9.60;99.90
8436;DHT22;4255;48.730;9.156;2024-02-23T14:43:27;9.90;99.90
8436;DHT22;4255;48.730;9.156;2024-02-23T14:45:57;10.10;99.90
8436;DHT22;4255;48.730;9.156;2024-02-23T14:48:22;10.20;99.90
8436;DHT22;4255;48.730;9.156;2024-02-23T14:50:48;10.00;99.90
8436;DHT22;4255;48.730;9.156;2024-02-23T14:53:15;9.90;99.90
8436;DHT22;4255;48.730;9.156;2024-02-23T14:55:40;9.90;99.90
8436;DHT22;4255;48.730;9.156;2024-02-23T14:58:06;9.90;99.90
8436;DHT22;4255;48.730;9.156;2024-02-23T15:00:31;9.70;99.90
8436;DHT22;4255;48.730;9.156;2024-02-23T15:02:58;9.80;99.90
8436;DHT22;4255;48.730;9.156;2024-02-23T15:05:24;9.70;99.90
8436;DHT22;4255;48.730;9.156;2024-02-23T15:07:50;9.60;99.90
8436;DHT22;4255;48.730;9.156;2024-02-23T15:10:15;9.50;99.90
8436;DHT22;4255;48.730;9.156;2024-02-23T15:12:41;9.60;99.90
8436;DHT22;4255;48.730;9.156;2024-02-23T15:15:07;9.50;99.90
8436;DHT22;4255;48.730;9.156;2024-02-23T15:17:33;9.40;99.90
8436;DHT22;4255;48.730;9.156;2024-02-23T15:19:59;9.40;99.90
8436;DHT22;4255;48.730;9.156;2024-02-23T15:22:25;9.40;99.90
8436;DHT22;4255;48.730;9.156;2024-02-23T15:24:51;9.50;99.90
8436;DHT22;4255;48.730;9.156;2024-02-23T15:27:18;9.40;99.90
8436;DHT22;4255;48.730;9.156;2024-02-23T15:29:44;9.50;99.90
8436;DHT22;4255;48.730;9.156;2024-02-23T15:32:09;9.60;99.90
8436;DHT22;4255;48.730;9.156;2024-02-23T15:34:38;9.70;99.90
8436;DHT22;4255;48.730;9.156;2024-02-23T15:37:04;9.80;99.90
8436;DHT22;4255;48.730;9.156;2024-02-23T15:39:30;9.80;99.90
8436;DHT22;4255;48.730;9.156;2024-02-23T15:41:56;9.60;99.90
8436;DHT22;4255;48.730;9.156;2024-02-23T15:44:21;9.50;99.90
8436;DHT22;4255;48.730;9.156;2024-02-23T15:46:47;9.50;99.90
8436;DHT22;4255;48.730;9.156;2024-02-23T15:49:13;9.50;99.90
8436;DHT22;4255;48.730;9.156;2024-02-23T15:51:38;9.60;99.90
8436;DHT22;4255;48.730;9.156;2024-02-23T15:54:05;9.60;99.90
8436;DHT22;4255;48.730;9.156;2024-02-23T15:56:31;9.70;99.90
8436;DHT22;4255;48.730;9.156;2024-02-23T15:58:56;9.80;99.90
8436;DHT22;4255;48.730;9.156;2024-02-23T16:01:22;9.90;99.90
8436;DHT22;4255;48.730;9.156;2024-02-23T16:03:48;10.20;99.90
8436;DHT22;4255;48.730;9.156;2024-02-23T16:06:14;10.60;99.90
8436;DHT22;4255;48.730;9.156;2024-02-23T16:08:41;10.50;99.90
8436;DHT22;4255;48.730;9.156;2024-02-23T16:11:08;10.40;99.90
8436;DHT22;4255;48.730;9.156;2024-02-23T16:13:36;10.50;99.90